Time;durP1;ratioP1;P1;durP2;ratioP2;P2;SDS_P1;SDS_P2;PMS_P1;PMS_P2;Temp;Humidity;BMP_temperature;BMP_pressure;BME280_temperature;BME280_humidity;BME280_pressure;Samples;Min_cycle;Max_cycle;Signal;HPM_P1;HPM_P2
2023/10/06 00:03:06;;;;;;;;;;;;;;;22.16;47.91;96713.59;10445052;28;1877;-56
2023/10/06 00:08:16;;;;;;;;;;;;;;;22.16;47.55;96711.75;10444235;28;1941;-56
2023/10/06 00:13:19;;;;;;;;;;;;;;;22.16;47.58;96724.97;10438746;28;2095;-57
2023/10/06 00:18:19;;;;;;;;;;;;;;;22.15;47.72;96709.41;10443642;28;1967;-56
2023/10/06 00:23:23;;;;;;;;;;;;;;;22.15;47.40;96714.69;10443800;28;2031;-55
2023/10/06 00:28:26;;;;;;;;;;;;;;;22.13;47.51;96712.31;10445412;28;2014;-57
2023/10/06 00:33:32;;;;;;;;;;;;;;;22.14;47.51;96713.06;10435523;28;2746;-57
2023/10/06 00:38:34;;;;;;;;;;;;;;;22.13;47.49;96706.22;10438853;28;2001;-57
2023/10/06 00:43:36;;;;;;;;;;;;;;;22.13;47.44;96714.13;10440283;28;4586;-56
2023/10/06 00:48:39;;;;;;;;;;;;;;;22.12;47.44;96709.91;10441367;28;2048;-56
2023/10/06 00:53:40;;;;;;;;;;;;;;;22.10;47.65;96702.25;10441185;28;1932;-56
2023/10/06 00:58:41;;;;;;;;;;;;;;;22.11;47.51;96701.22;10441217;28;1960;-56
2023/10/06 01:03:42;;;;;;;;;;;;;;;22.09;47.52;96710.44;10444617;28;2003;-55
2023/10/06 01:08:45;;;;;;;;;;;;;;;22.09;47.55;96703.28;10430487;28;1979;-56
2023/10/06 01:14:21;;;;;;;;;;;;;;;22.09;47.61;96699.88;10436290;28;2011;-57
2023/10/06 01:19:17;;;;;;;;;;;;;;;22.07;47.42;96700.09;10436052;28;2725;-56
2023/10/06 01:24:27;;;;;;;;;;;;;;;22.08;47.51;96707.00;10436549;28;1974;-56
2023/10/06 01:29:30;;;;;;;;;;;;;;;22.06;47.19;96705.66;10436961;28;2027;-56
2023/10/06 01:34:34;;;;;;;;;;;;;;;22.06;47.15;96705.66;10437988;28;1959;-55
2023/10/06 01:39:35;;;;;;;;;;;;;;;22.06;47.13;96698.53;10439462;28;2038;-57
2023/10/06 01:44:35;;;;;;;;;;;;;;;22.06;47.27;96692.47;10434464;28;4689;-55
2023/10/06 01:49:36;;;;;;;;;;;;;;;22.05;47.03;96696.94;10441452;28;2021;-57
2023/10/06 01:54:36;;;;;;;;;;;;;;;22.04;47.09;96695.38;10439103;28;1981;-55
2023/10/06 01:59:36;;;;;;;;;;;;;;;22.03;47.26;96693.00;10438785;28;2024;-57
2023/10/06 02:04:44;;;;;;;;;;;;;;;22.01;46.99;96687.94;10442284;28;2846;-57
2023/10/06 02:09:45;;;;;;;;;;;;;;;22.02;47.14;96689.56;10436667;28;1949;-57
2023/10/06 02:14:47;;;;;;;;;;;;;;;22.02;47.07;96680.84;10440881;28;1944;-57
2023/10/06 02:19:47;;;;;;;;;;;;;;;22.00;47.09;96673.19;10438028;28;1917;-57
2023/10/06 02:24:48;;;;;;;;;;;;;;;22.01;47.14;96685.31;10438744;28;2036;-57
2023/10/06 02:29:49;;;;;;;;;;;;;;;22.00;47.09;96677.66;10436403;28;1951;-57
2023/10/06 02:34:52;;;;;;;;;;;;;;;21.99;46.79;96679.50;10436279;28;2051;-57
2023/10/06 02:39:55;;;;;;;;;;;;;;;21.99;46.82;96681.38;10437813;28;1933;-57
2023/10/06 02:44:55;;;;;;;;;;;;;;;21.98;46.97;96683.22;10434893;28;4847;-57
2023/10/06 02:49:59;;;;;;;;;;;;;;;21.98;46.73;96680.56;10440666;28;2653;-57
2023/10/06 02:55:09;;;;;;;;;;;;;;;21.97;46.90;96673.69;10438518;28;1981;-56
2023/10/06 03:05:30;;;;;;;;;;;;;;;21.97;46.75;96675.56;10436442;28;2061;-57
2023/10/06 03:10:42;;;;;;;;;;;;;;;21.95;46.86;96667.88;10438160;28;1955;-56
2023/10/06 03:15:45;;;;;;;;;;;;;;;21.95;46.67;96667.88;10439740;28;2106;-55
2023/10/06 03:20:47;;;;;;;;;;;;;;;21.94;46.82;96666.31;10436326;28;2009;-56
2023/10/06 03:25:49;;;;;;;;;;;;;;;21.94;46.74;96666.31;10437576;28;1874;-57
2023/10/06 03:30:49;;;;;;;;;;;;;;;21.93;46.72;96663.94;10435961;28;2035;-56
2023/10/06 03:35:50;;;;;;;;;;;;;;;21.93;46.66;96675.25;10435307;28;2531;-57
2023/10/06 03:45:54;;;;;;;;;;;;;;;21.92;46.48;96676.31;10433123;28;4724;-56
2023/10/06 03:50:55;;;;;;;;;;;;;;;21.91;46.65;96680.00;10437292;28;1899;-56
2023/10/06 03:55:56;;;;;;;;;;;;;;;21.92;46.41;96678.16;10436462;28;1983;-57
2023/10/06 04:00:58;;;;;;;;;;;;;;;21.91;46.65;96671.31;10438088;28;1948;-56
2023/10/06 04:05:58;;;;;;;;;;;;;;;21.90;46.41;96669.72;10436522;28;1965;-57
2023/10/06 04:10:58;;;;;;;;;;;;;;;21.89;46.67;96676.84;10432617;28;1900;-55
2023/10/06 04:15:58;;;;;;;;;;;;;;;21.90;46.63;96673.16;10441748;28;2010;-57
2023/10/06 04:20:59;;;;;;;;;;;;;;;21.88;46.59;96673.38;10441431;28;2622;-56
2023/10/06 04:26:00;;;;;;;;;;;;;;;21.86;46.24;96674.72;10443839;28;2044;-56
2023/10/06 04:31:01;;;;;;;;;;;;;;;21.88;46.36;96675.25;10445351;28;1986;-54
2023/10/06 04:36:11;;;;;;;;;;;;;;;21.87;46.23;96681.56;10436096;28;1992;-57
2023/10/06 04:41:14;;;;;;;;;;;;;;;21.86;46.45;96670.22;10433938;28;2043;-57
2023/10/06 04:46:14;;;;;;;;;;;;;;;21.86;46.31;96664.94;10441718;28;4749;-56
2023/10/06 04:51:15;;;;;;;;;;;;;;;21.85;46.24;96671.28;10447143;28;1893;-57
2023/10/06 04:56:16;;;;;;;;;;;;;;;21.84;46.17;96661.75;10445640;28;1999;-57
2023/10/06 05:01:18;;;;;;;;;;;;;;;21.86;46.11;96648.34;10446634;28;1947;-56
2023/10/06 05:06:21;;;;;;;;;;;;;;;21.89;46.36;96645.16;10443682;28;2657;-58
2023/10/06 05:11:23;;;;;;;;;;;;;;;21.89;46.10;96631.97;10440993;28;2236;-58
2023/10/06 05:16:27;;;;;;;;;;;;;;;21.90;46.06;96638.84;10436938;28;2014;-58
2023/10/06 05:21:27;;;;;;;;;;;;;;;21.90;46.03;96649.41;10434267;28;1975;-58
2023/10/06 05:26:30;;;;;;;;;;;;;;;21.90;46.23;96645.97;10434824;28;2055;-58
2023/10/06 05:31:30;;;;;;;;;;;;;;;21.88;46.39;96654.16;10439236;28;2111;-58
2023/10/06 05:36:31;;;;;;;;;;;;;;;21.87;46.19;96655.19;10439851;28;2103;-58
2023/10/06 05:41:32;;;;;;;;;;;;;;;21.86;46.27;96654.38;10439522;28;4634;-58
2023/10/06 05:46:32;;;;;;;;;;;;;;;21.86;46.27;96653.59;10441383;28;2039;-58
2023/10/06 05:51:33;;;;;;;;;;;;;;;21.84;46.35;96664.41;10442142;28;2678;-58
2023/10/06 05:56:37;;;;;;;;;;;;;;;21.84;46.24;96674.19;10441455;28;1983;-58
2023/10/06 06:01:37;;;;;;;;;;;;;;;21.82;46.34;96673.66;10436931;28;1912;-58
2023/10/06 06:06:38;;;;;;;;;;;;;;;21.82;46.12;96669.16;10436828;28;2011;-57
2023/10/06 06:11:41;;;;;;;;;;;;;;;21.82;46.29;96681.56;10438305;28;2238;-58
2023/10/06 06:16:44;;;;;;;;;;;;;;;21.80;46.17;96676.50;10431470;28;1902;-58
2023/10/06 06:21:48;;;;;;;;;;;;;;;21.80;46.01;96684.41;10438386;28;1962;-58
2023/10/06 06:26:49;;;;;;;;;;;;;;;21.80;46.20;96686.28;10434764;28;2074;-58
2023/10/06 06:31:52;;;;;;;;;;;;;;;21.80;46.02;96686.28;10441118;28;1755;-58
2023/10/06 06:36:53;;;;;;;;;;;;;;;21.79;46.10;96690.78;10433832;28;1973;-57
2023/10/06 06:41:53;;;;;;;;;;;;;;;21.79;45.96;96697.88;10440739;28;4626;-58
2023/10/06 06:46:54;;;;;;;;;;;;;;;21.78;45.83;96698.94;10438051;28;1886;-58
2023/10/06 06:51:58;;;;;;;;;;;;;;;21.76;46.23;96699.19;10438889;28;2471;-57
2023/10/06 06:56:58;;;;;;;;;;;;;;;21.78;46.16;96720.06;10439298;28;2100;-58
2023/10/06 07:01:59;;;;;;;;;;;;;;;21.77;46.02;96723.75;10439399;28;1869;-57
2023/10/06 07:07:01;;;;;;;;;;;;;;;21.77;46.16;96726.38;10437941;28;1965;-58
2023/10/06 07:12:01;;;;;;;;;;;;;;;21.77;46.36;96723.75;10438579;28;1882;-57
2023/10/06 07:17:01;;;;;;;;;;;;;;;21.76;46.32;96714.25;10434689;28;1914;-57
2023/10/06 07:22:02;;;;;;;;;;;;;;;21.76;46.34;96716.88;10434426;28;1885;-57
2023/10/06 07:27:02;;;;;;;;;;;;;;;21.76;46.40;96716.88;10439198;28;1855;-57
2023/10/06 07:32:03;;;;;;;;;;;;;;;21.75;46.26;96715.28;10436210;28;1866;-58
2023/10/06 07:37:03;;;;;;;;;;;;;;;21.76;46.55;96714.25;10436712;28;1981;-57
2023/10/06 07:42:06;;;;;;;;;;;;;;;21.76;46.69;96727.44;10438538;28;4614;-58
2023/10/06 07:47:06;;;;;;;;;;;;;;;21.75;46.69;96721.38;10440936;28;2425;-57
2023/10/06 07:52:07;;;;;;;;;;;;;;;21.75;46.45;96716.09;10443658;28;1881;-56
2023/10/06 07:57:09;;;;;;;;;;;;;;;21.76;46.55;96716.88;10443589;28;1961;-56
2023/10/06 08:02:10;;;;;;;;;;;;;;;21.76;46.52;96720.31;10440396;28;1888;-58
2023/10/06 08:07:10;;;;;;;;;;;;;;;21.76;46.52;96712.38;10443815;28;1866;-58
2023/10/06 08:12:10;;;;;;;;;;;;;;;21.76;46.77;96706.34;10446802;28;1890;-57
2023/10/06 08:17:11;;;;;;;;;;;;;;;21.77;46.97;96711.34;10445105;28;1927;-57
2023/10/06 08:22:11;;;;;;;;;;;;;;;21.78;46.67;96709.50;10441850;28;1830;-58
2023/10/06 08:27:11;;;;;;;;;;;;;;;21.77;46.86;96703.44;10447762;28;1897;-58
2023/10/06 08:32:12;;;;;;;;;;;;;;;21.79;46.53;96695.25;10442406;28;1894;-58
2023/10/06 08:37:19;;;;;;;;;;;;;;;21.79;46.66;96689.97;10442082;28;2990;-58
2023/10/06 08:42:19;;;;;;;;;;;;;;;21.78;46.94;96691.81;10441824;28;4633;-58
2023/10/06 08:47:20;;;;;;;;;;;;;;;21.80;46.88;96683.66;10439300;28;1924;-58
2023/10/06 08:52:22;;;;;;;;;;;;;;;21.80;46.80;96687.06;10436121;28;1917;-56
2023/10/06 08:57:24;;;;;;;;;;;;;;;21.80;46.91;96681.78;10442555;28;1906;-58
2023/10/06 09:02:25;;;;;;;;;;;;;;;21.80;46.77;96676.50;10440397;28;1889;-56
2023/10/06 09:07:25;;;;;;;;;;;;;;;21.80;46.90;96676.50;10438193;28;1865;-57
2023/10/06 09:12:26;;;;;;;;;;;;;;;21.81;46.58;96677.31;10441327;28;1889;-57
2023/10/06 09:17:32;;;;;;;;;;;;;;;21.81;47.00;96662.31;10441093;28;1969;-57
2023/10/06 09:22:45;;;;;;;;;;;;;;;21.82;46.92;96666.50;10438558;28;2542;-58
2023/10/06 09:27:48;;;;;;;;;;;;;;;21.82;46.92;96663.09;10437965;28;1913;-58
2023/10/06 09:32:49;;;;;;;;;;;;;;;21.83;46.49;96654.91;10435334;28;2006;-58
2023/10/06 09:37:51;;;;;;;;;;;;;;;21.84;46.67;96666.28;10436721;28;1971;-57
2023/10/06 09:42:51;;;;;;;;;;;;;;;21.85;46.60;96666.00;10441578;28;4680;-58
2023/10/06 09:47:56;;;;;;;;;;;;;;;21.88;46.26;96666.53;10438457;28;1794;-58
2023/10/06 09:52:56;;;;;;;;;;;;;;;21.85;46.58;96673.13;10454805;28;1898;-57
2023/10/06 09:57:56;;;;;;;;;;;;;;;21.85;46.70;96660.72;10438131;28;1959;-56
2023/10/06 10:02:57;;;;;;;;;;;;;;;21.87;46.67;96660.47;10438564;28;1837;-58
2023/10/06 10:07:58;;;;;;;;;;;;;;;21.88;46.76;96662.06;10441393;28;3042;-58
2023/10/06 10:13:08;;;;;;;;;;;;;;;21.88;46.75;96651.50;10439763;28;2096;-58
2023/10/06 10:18:20;;;;;;;;;;;;;;;21.88;47.08;96646.22;10438670;28;1973;-57
2023/10/06 10:23:20;;;;;;;;;;;;;;;21.89;47.23;96647.78;10435792;28;1874;-57
2023/10/06 10:28:20;;;;;;;;;;;;;;;21.89;47.20;96647.78;10440335;28;1881;-56
2023/10/06 10:33:21;;;;;;;;;;;;;;;21.90;47.50;96649.41;10435591;28;1901;-56
2023/10/06 10:38:21;;;;;;;;;;;;;;;21.91;47.49;96640.41;10434600;28;1997;-58
2023/10/06 10:43:21;;;;;;;;;;;;;;;21.91;47.44;96632.50;10435477;28;4720;-58
2023/10/06 10:48:22;;;;;;;;;;;;;;;21.92;47.48;96626.16;10437213;28;1854;-57
2023/10/06 10:53:23;;;;;;;;;;;;;;;21.94;47.46;96613.50;10435831;28;1826;-57
2023/10/06 10:58:41;;;;;;;;;;;;;;;21.95;47.43;96607.16;10435141;28;1898;-58
2023/10/06 11:03:41;;;;;;;;;;;;;;;21.96;47.56;96611.41;10438098;28;2303;-58
2023/10/06 11:08:42;;;;;;;;;;;;;;;21.94;47.24;96602.94;10435266;28;1909;-58
2023/10/06 11:13:56;;;;;;;;;;;;;;;21.98;47.51;96609.28;10435831;28;2012;-59
2023/10/06 11:18:56;;;;;;;;;;;;;;;21.98;47.23;96604.00;10437640;28;1970;-58
2023/10/06 11:23:58;;;;;;;;;;;;;;;21.98;47.69;96603.22;10446314;28;1886;-58
2023/10/06 11:29:00;;;;;;;;;;;;;;;21.99;47.51;96583.69;10445760;28;1827;-58
2023/10/06 11:34:00;;;;;;;;;;;;;;;22.03;47.86;96568.91;10445401;28;2014;-58
2023/10/06 11:39:00;;;;;;;;;;;;;;;22.02;47.67;96562.81;10442746;28;1887;-58
2023/10/06 11:44:02;;;;;;;;;;;;;;;22.03;47.71;96560.97;10440088;28;4674;-57
2023/10/06 11:49:12;;;;;;;;;;;;;;;22.02;47.37;96554.91;10443778;28;2470;-56
2023/10/06 11:54:12;;;;;;;;;;;;;;;22.03;47.79;96556.47;10444619;28;1911;-57
2023/10/06 11:59:22;;;;;;;;;;;;;;;22.04;47.37;96552.78;10435231;28;1938;-56
2023/10/06 12:04:30;;;;;;;;;;;;;;;22.11;47.69;96545.41;10444161;28;1696;-57
2023/10/06 12:09:30;;;;;;;;;;;;;;;22.09;47.50;96539.56;10445129;28;1475;-57
2023/10/06 12:14:33;;;;;;;;;;;;;;;22.10;47.67;96527.97;10446051;28;1910;-57
2023/10/06 12:19:33;;;;;;;;;;;;;;;22.11;47.80;96526.94;10445565;28;1840;-56
2023/10/06 12:24:33;;;;;;;;;;;;;;;22.15;48.09;96524.53;10446182;28;1697;-56
2023/10/06 12:29:34;;;;;;;;;;;;;;;22.15;48.08;96525.34;10446110;28;1656;-58
2023/10/06 12:34:35;;;;;;;;;;;;;;;22.16;48.47;96511.06;10443826;28;2564;-58
2023/10/06 12:39:35;;;;;;;;;;;;;;;22.17;49.05;96510.03;10440217;28;1717;-58
2023/10/06 12:44:39;;;;;;;;;;;;;;;22.18;48.96;96506.31;10444954;28;4685;-59
2023/10/06 12:49:43;;;;;;;;;;;;;;;22.19;49.24;96502.63;10438257;28;1969;-58
2023/10/06 12:54:44;;;;;;;;;;;;;;;22.20;49.19;96498.13;10441591;28;1902;-58
2023/10/06 12:59:44;;;;;;;;;;;;;;;22.21;49.19;96499.72;10445162;28;1503;-58
2023/10/06 13:04:45;;;;;;;;;;;;;;;22.21;49.02;96494.44;10445649;28;1797;-58
2023/10/06 13:09:49;;;;;;;;;;;;;;;22.22;49.12;96496.00;10450062;28;1518;-58
2023/10/06 13:14:49;;;;;;;;;;;;;;;22.23;49.18;96500.25;10442377;28;1905;-57
2023/10/06 13:19:50;;;;;;;;;;;;;;;22.22;49.04;96488.88;10441770;28;2475;-58
2023/10/06 13:24:51;;;;;;;;;;;;;;;22.24;49.04;96478.03;10437665;28;1953;-59
2023/10/06 13:29:52;;;;;;;;;;;;;;;22.25;49.02;96485.72;10436383;28;1897;-58
2023/10/06 13:34:53;;;;;;;;;;;;;;;22.27;48.91;96478.31;10435931;28;1979;-58
2023/10/06 13:39:53;;;;;;;;;;;;;;;22.28;49.05;96476.44;10439702;28;1884;-59
2023/10/06 13:44:53;;;;;;;;;;;;;;;22.30;48.90;96463.78;10442506;28;1881;-58
2023/10/06 13:49:54;;;;;;;;;;;;;;;22.29;48.60;96457.72;10431536;28;1886;-57
2023/10/06 13:54:57;;;;;;;;;;;;;;;22.29;48.83;96449.00;10441075;28;1930;-57
2023/10/06 13:59:57;;;;;;;;;;;;;;;22.30;48.69;96456.66;10435086;28;2132;-57
2023/10/06 14:04:59;;;;;;;;;;;;;;;22.30;48.59;96454.00;10434953;28;2350;-55
2023/10/06 14:10:00;;;;;;;;;;;;;;;22.30;48.83;96458.50;10431085;28;2014;-56
2023/10/06 14:15:15;;;;;;;;;;;;;;;22.28;48.72;96461.41;10428358;28;1899;-57
2023/10/06 14:20:23;;;;;;;;;;;;;;;22.29;48.92;96454.28;10437567;28;1875;-57
2023/10/06 14:25:26;;;;;;;;;;;;;;;22.28;48.85;96456.13;10432574;28;1964;-57
2023/10/06 14:30:28;;;;;;;;;;;;;;;22.28;48.75;96456.13;10437108;28;1842;-59
2023/10/06 14:35:45;;;;;;;;;;;;;;;22.27;48.80;96451.91;10435611;28;1974;-57
2023/10/06 14:46:16;;;;;;;;;;;;;;;22.26;48.85;96460.88;10439397;28;4626;-57
2023/10/06 14:51:18;;;;;;;;;;;;;;;22.25;48.64;96451.41;10435332;28;2490;-57
2023/10/06 14:56:19;;;;;;;;;;;;;;;22.25;48.70;96450.59;10439773;28;1977;-57
2023/10/06 15:01:19;;;;;;;;;;;;;;;22.25;48.97;96446.09;10433695;28;1493;-57
2023/10/06 15:06:20;;;;;;;;;;;;;;;22.24;49.01;96439.22;10436817;28;2018;-57
2023/10/06 15:11:22;;;;;;;;;;;;;;;22.23;49.15;96435.03;10435226;28;1498;-57
2023/10/06 15:16:23;;;;;;;;;;;;;;;22.22;49.33;96438.72;10438820;28;1914;-56
2023/10/06 15:21:23;;;;;;;;;;;;;;;22.22;49.23;96436.06;10437726;28;1886;-57
2023/10/06 15:26:25;;;;;;;;;;;;;;;22.22;49.04;96437.91;10437113;28;1444;-56
2023/10/06 15:31:28;;;;;;;;;;;;;;;22.22;49.18;96438.72;10437221;28;1931;-56
2023/10/06 15:36:29;;;;;;;;;;;;;;;22.22;49.34;96427.34;10433840;28;2478;-56
2023/10/06 15:41:31;;;;;;;;;;;;;;;22.21;49.20;96423.13;10435082;28;1520;-56
2023/10/06 15:46:32;;;;;;;;;;;;;;;22.21;49.43;96426.56;10434505;28;1741;-56
2023/10/06 15:51:33;;;;;;;;;;;;;;;22.20;49.44;96417.06;10440849;28;1847;-56
2023/10/06 15:56:38;;;;;;;;;;;;;;;22.20;49.12;96418.91;10440887;28;1906;-57
2023/10/06 16:01:39;;;;;;;;;;;;;;;22.19;49.40;96412.84;10438049;28;1558;-56
2023/10/06 16:06:41;;;;;;;;;;;;;;;22.19;49.16;96412.06;10435401;28;1781;-55
2023/10/06 16:11:41;;;;;;;;;;;;;;;22.18;49.13;96413.91;10441912;28;1553;-57
2023/10/06 16:16:42;;;;;;;;;;;;;;;22.18;49.22;96416.53;10443991;28;1973;-57
2023/10/06 16:21:42;;;;;;;;;;;;;;;22.18;49.33;96419.19;10444418;28;2521;-58
2023/10/06 16:26:42;;;;;;;;;;;;;;;22.17;49.30;96425.53;10444712;28;1539;-57
2023/10/06 16:31:43;;;;;;;;;;;;;;;22.17;49.17;96422.88;10438088;28;1462;-57
2023/10/06 16:36:43;;;;;;;;;;;;;;;22.16;48.89;96421.28;10444787;28;2016;-55
2023/10/06 16:41:43;;;;;;;;;;;;;;;22.16;48.97;96423.94;10441905;28;4614;-57
2023/10/06 16:46:43;;;;;;;;;;;;;;;22.16;49.19;96421.28;10444448;28;1442;-57
2023/10/06 16:51:45;;;;;;;;;;;;;;;22.17;49.33;96432.66;10443278;28;1864;-57
2023/10/06 16:56:46;;;;;;;;;;;;;;;22.16;49.25;96442.41;10442112;28;1984;-57
2023/10/06 17:01:46;;;;;;;;;;;;;;;22.18;48.93;96444.78;10440793;28;1505;-57
2023/10/06 17:06:46;;;;;;;;;;;;;;;22.20;48.93;96448.75;10439913;28;2533;-57
2023/10/06 17:11:47;;;;;;;;;;;;;;;22.25;48.80;96447.94;10444181;28;1564;-57
2023/10/06 17:16:47;;;;;;;;;;;;;;;22.27;48.53;96451.13;10437421;28;1910;-57
2023/10/06 17:21:47;;;;;;;;;;;;;;;22.29;48.68;96452.44;10443323;28;1769;-57
2023/10/06 17:26:49;;;;;;;;;;;;;;;22.30;48.69;96448.72;10437933;28;1534;-57
2023/10/06 17:31:50;;;;;;;;;;;;;;;22.31;48.32;96449.53;10440045;28;1490;-56
2023/10/06 17:36:50;;;;;;;;;;;;;;;22.32;48.26;96457.16;10441652;28;1995;-57
2023/10/06 17:41:50;;;;;;;;;;;;;;;22.34;48.20;96443.72;10440564;28;4692;-56
2023/10/06 17:46:51;;;;;;;;;;;;;;;22.35;48.22;96456.66;10444685;28;1471;-57
2023/10/06 17:51:52;;;;;;;;;;;;;;;22.38;47.98;96442.88;10440635;28;2496;-56
2023/10/06 17:56:54;;;;;;;;;;;;;;;22.37;48.18;96449.25;10442141;28;1979;-57
2023/10/06 18:01:57;;;;;;;;;;;;;;;22.39;47.92;96456.91;10446570;28;1552;-57
2023/10/06 18:06:57;;;;;;;;;;;;;;;22.40;47.84;96451.34;10438570;28;1717;-58
2023/10/06 18:11:58;;;;;;;;;;;;;;;22.40;47.95;96451.34;10441061;28;1516;-57
2023/10/06 18:16:58;;;;;;;;;;;;;;;22.41;48.13;96460.84;10434982;28;1918;-57
2023/10/06 18:21:58;;;;;;;;;;;;;;;22.43;47.83;96453.47;10435997;28;1957;-56
2023/10/06 18:26:59;;;;;;;;;;;;;;;22.43;47.94;96456.09;10439398;28;1443;-57
2023/10/06 18:31:59;;;;;;;;;;;;;;;22.43;47.88;96458.75;10439945;28;1495;-56
2023/10/06 18:37:00;;;;;;;;;;;;;;;22.44;48.14;96465.59;10441370;28;1902;-57
2023/10/06 18:42:00;;;;;;;;;;;;;;;22.43;48.00;96458.75;10436301;28;4614;-56
2023/10/06 18:47:01;;;;;;;;;;;;;;;22.44;48.10;96462.94;10441705;28;1676;-56
2023/10/06 18:52:01;;;;;;;;;;;;;;;22.44;47.82;96470.09;10439252;28;2578;-57
2023/10/06 18:57:01;;;;;;;;;;;;;;;22.44;47.95;96470.88;10443408;28;1906;-57
2023/10/06 19:02:02;;;;;;;;;;;;;;;22.44;47.97;96476.16;10437846;28;1701;-56
2023/10/06 19:07:02;;;;;;;;;;;;;;;22.42;47.87;96467.72;10439860;28;1871;-57
2023/10/06 19:12:03;;;;;;;;;;;;;;;22.44;47.66;96470.88;10438296;28;1490;-56
2023/10/06 19:17:03;;;;;;;;;;;;;;;22.44;47.57;96481.44;10436184;28;1913;-58
2023/10/06 19:22:03;;;;;;;;;;;;;;;22.44;47.87;96472.75;10439621;28;1749;-57
2023/10/06 19:27:03;;;;;;;;;;;;;;;22.43;47.73;96479.06;10439974;28;1500;-56
2023/10/06 19:32:04;;;;;;;;;;;;;;;22.43;47.89;96479.88;10435442;28;1494;-57
2023/10/06 19:37:05;;;;;;;;;;;;;;;22.43;47.60;96471.94;10432495;28;2471;-58
2023/10/06 19:42:08;;;;;;;;;;;;;;;22.43;47.46;96469.31;10432820;28;4712;-58
2023/10/06 19:47:09;;;;;;;;;;;;;;;22.47;47.61;96475.63;10443237;28;1826;-57
2023/10/06 19:52:09;;;;;;;;;;;;;;;22.45;47.33;96469.84;10444656;28;1851;-57
2023/10/06 19:57:10;;;;;;;;;;;;;;;22.44;47.37;96470.09;10445310;28;1977;-57
2023/10/06 20:02:10;;;;;;;;;;;;;;;22.44;47.49;96470.09;10443026;28;1539;-57
2023/10/06 20:07:11;;;;;;;;;;;;;;;22.44;47.75;96472.75;10443482;28;1432;-57
2023/10/06 20:12:11;;;;;;;;;;;;;;;22.43;47.78;96469.31;10437682;28;1475;-57
2023/10/06 20:17:14;;;;;;;;;;;;;;;22.42;47.54;96464.31;10447148;28;1963;-58
2023/10/06 20:22:14;;;;;;;;;;;;;;;22.42;47.75;96466.94;10440975;28;2775;-57
2023/10/06 20:27:18;;;;;;;;;;;;;;;22.42;47.46;96470.34;10448094;28;1468;-57
2023/10/06 20:32:18;;;;;;;;;;;;;;;22.41;47.62;96460.84;10443534;28;1436;-56
2023/10/06 20:37:19;;;;;;;;;;;;;;;22.41;47.62;96468.78;10446834;28;1922;-58
2023/10/06 20:42:19;;;;;;;;;;;;;;;22.40;47.67;96464.53;10433490;28;4625;-57
2023/10/06 20:47:19;;;;;;;;;;;;;;;22.42;47.50;96467.72;10446990;28;1435;-56
2023/10/06 20:52:20;;;;;;;;;;;;;;;22.44;47.18;96476.16;10440322;28;1832;-58
2023/10/06 20:57:23;;;;;;;;;;;;;;;22.37;47.40;96472.22;10437553;28;1957;-58
2023/10/06 21:02:24;;;;;;;;;;;;;;;22.33;47.30;96471.97;10439776;28;1954;-59
2023/10/06 21:07:24;;;;;;;;;;;;;;;22.29;47.24;96478.84;10441758;28;2500;-59
2023/10/06 21:12:25;;;;;;;;;;;;;;;22.26;47.56;96487.28;10433961;28;1841;-59
2023/10/06 21:17:28;;;;;;;;;;;;;;;22.23;47.52;96484.41;10439548;28;1910;-58
2023/10/06 21:22:28;;;;;;;;;;;;;;;22.19;47.59;96492.06;10436370;28;1927;-58
2023/10/06 21:27:28;;;;;;;;;;;;;;;22.17;47.38;96488.91;10437465;28;1881;-58
2023/10/06 21:32:30;;;;;;;;;;;;;;;22.15;47.83;96496.31;10433570;28;1883;-58
2023/10/06 21:37:30;;;;;;;;;;;;;;;22.14;47.76;96497.34;10437445;28;1902;-57
2023/10/06 21:42:33;;;;;;;;;;;;;;;22.14;47.91;96501.81;10435492;28;4696;-57
2023/10/06 21:47:33;;;;;;;;;;;;;;;22.12;48.29;96499.47;10437418;28;1874;-58
2023/10/06 21:52:33;;;;;;;;;;;;;;;22.12;48.09;96498.66;10438679;28;2501;-57
2023/10/06 21:57:34;;;;;;;;;;;;;;;22.11;48.09;96503.16;10437558;28;1990;-58
2023/10/06 22:02:35;;;;;;;;;;;;;;;22.11;48.16;96511.09;10434282;28;1901;-57
2023/10/06 22:07:35;;;;;;;;;;;;;;;22.09;48.13;96505.25;10435934;28;1987;-57
2023/10/06 22:12:37;;;;;;;;;;;;;;;22.08;48.44;96495.75;10435941;28;1976;-58
2023/10/06 22:17:37;;;;;;;;;;;;;;;22.08;48.56;96498.41;10436762;28;1984;-57
2023/10/06 22:22:38;;;;;;;;;;;;;;;22.08;48.40;96497.59;10439707;28;2088;-57
2023/10/06 22:27:40;;;;;;;;;;;;;;;22.07;48.47;96499.44;10437706;28;1810;-58
2023/10/06 22:32:40;;;;;;;;;;;;;;;22.06;48.49;96486.53;10438842;28;1877;-58
2023/10/06 22:37:40;;;;;;;;;;;;;;;22.05;48.29;96491.00;10434838;28;2484;-58
2023/10/06 22:42:41;;;;;;;;;;;;;;;22.03;48.63;96485.19;10437881;28;4649;-59
2023/10/06 22:47:42;;;;;;;;;;;;;;;22.03;48.22;96490.47;10436310;28;2041;-58
2023/10/06 22:52:46;;;;;;;;;;;;;;;22.03;48.56;96476.50;10436169;28;1924;-58
2023/10/06 22:57:47;;;;;;;;;;;;;;;22.02;48.46;96483.63;10437253;28;2047;-59
2023/10/06 23:02:47;;;;;;;;;;;;;;;22.01;48.20;96482.03;10436528;28;1914;-59
2023/10/06 23:07:48;;;;;;;;;;;;;;;22.01;48.46;96471.47;10436428;28;1897;-58
2023/10/06 23:12:51;;;;;;;;;;;;;;;22.00;48.36;96480.47;10440498;28;1886;-59
2023/10/06 23:17:51;;;;;;;;;;;;;;;21.99;48.05;96473.56;10432306;28;2060;-57
2023/10/06 23:23:02;;;;;;;;;;;;;;;21.98;48.41;96472.00;10451200;28;2448;-57
2023/10/06 23:28:05;;;;;;;;;;;;;;;21.97;48.19;96470.41;10449915;28;1849;-58
2023/10/06 23:33:05;;;;;;;;;;;;;;;21.98;48.48;96473.84;10449781;28;1869;-58
2023/10/06 23:38:11;;;;;;;;;;;;;;;21.96;48.14;96476.75;10447720;28;1910;-58
2023/10/06 23:43:11;;;;;;;;;;;;;;;21.96;48.46;96470.69;10447203;28;1873;-58
2023/10/06 23:48:12;;;;;;;;;;;;;;;21.96;48.25;96475.97;10448740;28;1972;-58
2023/10/06 23:53:16;;;;;;;;;;;;;;;21.94;48.43;96464.88;10449374;28;1915;-58
2023/10/06 23:58:16;;;;;;;;;;;;;;;21.93;48.31;96469.38;10449410;28;1965;-59
